Time;durP1;ratioP1;P1;durP2;ratioP2;P2;SDS_P1;SDS_P2;PMS_P1;PMS_P2;Temp;Humidity;BMP_temperature;BMP_pressure;BME280_temperature;BME280_humidity;BME280_pressure;Samples;Min_cycle;Max_cycle;Signal;HPM_P1;HPM_P2
2023/04/26 00:02:03;;;;;;;4.82;1.77;;;2.80;99.90;;;;;;5053147;28;20488;-78
2023/04/26 00:04:30;;;;;;;4.78;1.70;;;2.90;99.90;;;;;;5052987;28;20056;-78
2023/04/26 00:06:56;;;;;;;4.03;1.90;;;2.70;99.90;;;;;;5053270;28;20068;-77
2023/04/26 00:09:22;;;;;;;4.45;1.70;;;2.60;99.90;;;;;;5052216;28;20052;-78
2023/04/26 00:11:48;;;;;;;3.75;1.80;;;2.70;99.90;;;;;;5052006;28;20037;-78
2023/04/26 00:14:14;;;;;;;8.13;1.73;;;2.50;99.90;;;;;;5053613;28;20047;-78
2023/04/26 00:16:40;;;;;;;4.57;1.90;;;2.50;99.90;;;;;;5053050;28;20123;-78
2023/04/26 00:19:05;;;;;;;6.10;1.52;;;2.40;99.90;;;;;;5052047;28;20213;-78
2023/04/26 00:21:31;;;;;;;4.95;1.60;;;2.60;99.90;;;;;;5051994;28;20091;-78
2023/04/26 00:23:57;;;;;;;5.13;1.90;;;2.30;99.90;;;;;;5052122;28;20045;-78
2023/04/26 00:26:23;;;;;;;3.92;1.70;;;2.30;99.90;;;;;;5051825;28;20457;-77
2023/04/26 00:28:49;;;;;;;5.40;1.77;;;2.30;99.90;;;;;;5053257;28;20512;-77
2023/04/26 00:31:16;;;;;;;4.82;1.67;;;2.80;99.90;;;;;;5052782;28;20088;-77
2023/04/26 00:33:42;;;;;;;3.67;1.95;;;2.30;99.90;;;;;;5051938;28;20052;-77
2023/04/26 00:36:07;;;;;;;7.65;2.15;;;2.30;99.90;;;;;;5052823;28;20045;-77
2023/04/26 00:38:33;;;;;;;4.20;2.40;;;2.30;99.90;;;;;;5052584;28;20452;-77
2023/04/26 00:40:59;;;;;;;4.05;1.83;;;2.90;99.90;;;;;;5055502;28;20056;-78
2023/04/26 00:43:24;;;;;;;4.65;2.10;;;2.80;99.90;;;;;;5055266;28;20095;-78
2023/04/26 00:45:50;;;;;;;5.72;1.98;;;2.30;99.90;;;;;;5056501;28;20095;-78
2023/04/26 00:48:17;;;;;;;3.85;1.73;;;2.30;99.90;;;;;;5056115;28;20493;-77
2023/04/26 00:50:43;;;;;;;7.03;2.10;;;2.40;99.90;;;;;;5056358;28;20120;-77
2023/04/26 00:53:09;;;;;;;3.20;1.63;;;2.40;99.90;;;;;;5055344;28;20459;-77
2023/04/26 00:55:35;;;;;;;4.55;2.13;;;2.40;99.90;;;;;;5056557;28;20374;-77
2023/04/26 00:58:01;;;;;;;6.30;1.70;;;2.70;99.90;;;;;;5055197;28;20063;-77
2023/04/26 01:00:27;;;;;;;5.07;1.90;;;2.80;99.90;;;;;;5054954;28;20041;-77
2023/04/26 01:02:52;;;;;;;2.88;1.42;;;3.00;99.90;;;;;;5056221;28;20068;-76
2023/04/26 01:05:18;;;;;;;6.03;1.55;;;3.10;99.90;;;;;;5056207;28;20048;-76
2023/04/26 01:07:45;;;;;;;6.20;1.88;;;2.70;99.90;;;;;;5056092;28;20237;-75
2023/04/26 01:10:11;;;;;;;4.72;1.67;;;2.80;99.90;;;;;;5056125;28;20049;-75
2023/04/26 01:12:38;;;;;;;4.10;2.35;;;3.60;99.90;;;;;;5056726;28;20071;-74
2023/04/26 01:15:04;;;;;;;5.95;1.80;;;3.60;99.90;;;;;;5054998;28;20467;-75
2023/04/26 01:17:30;;;;;;;4.05;1.70;;;3.00;99.90;;;;;;5054899;28;20470;-76
2023/04/26 01:19:56;;;;;;;3.75;1.80;;;3.10;99.90;;;;;;5055806;28;20102;-76
2023/04/26 01:22:21;;;;;;;3.92;2.00;;;3.10;99.90;;;;;;5055827;28;20052;-76
2023/04/26 01:24:53;;;;;;;4.25;1.92;;;3.10;99.90;;;;;;5055801;28;20056;-75
2023/04/26 01:27:20;;;;;;;3.03;1.63;;;3.00;99.90;;;;;;5055774;28;20065;-76
2023/04/26 01:29:46;;;;;;;3.78;1.77;;;3.30;99.90;;;;;;5056070;28;20052;-75
2023/04/26 01:32:12;;;;;;;4.90;1.63;;;3.10;99.90;;;;;;5055627;28;20084;-75
2023/04/26 01:34:37;;;;;;;4.40;1.90;;;2.90;99.90;;;;;;5056113;28;20084;-76
2023/04/26 01:37:03;;;;;;;3.42;1.90;;;3.10;99.90;;;;;;5055526;28;20041;-76
2023/04/26 01:39:29;;;;;;;5.20;1.77;;;3.50;99.90;;;;;;5054804;28;20382;-76
2023/04/26 01:41:57;;;;;;;3.75;1.60;;;2.90;99.90;;;;;;5055425;28;20056;-75
2023/04/26 01:44:23;;;;;;;4.65;1.83;;;2.70;99.90;;;;;;5055414;28;20056;-75
2023/04/26 01:46:48;;;;;;;2.72;1.50;;;2.60;99.90;;;;;;5055398;28;20051;-76
2023/04/26 01:49:14;;;;;;;4.10;1.83;;;2.60;99.90;;;;;;5055327;28;20064;-76
2023/04/26 01:51:40;;;;;;;6.15;2.08;;;2.90;99.90;;;;;;5055715;28;20137;-76
2023/04/26 01:54:06;;;;;;;3.90;1.70;;;2.60;99.90;;;;;;5055278;28;20102;-77
2023/04/26 01:56:32;;;;;;;6.47;1.90;;;2.90;99.90;;;;;;5055408;28;20385;-76
2023/04/26 01:58:58;;;;;;;4.00;2.08;;;2.90;99.90;;;;;;5054391;28;20135;-77
2023/04/26 02:01:24;;;;;;;5.22;1.60;;;2.60;99.90;;;;;;5055116;28;20450;-77
2023/04/26 02:03:50;;;;;;;3.75;1.65;;;2.80;99.90;;;;;;5055155;28;20048;-76
2023/04/26 02:06:16;;;;;;;6.68;2.05;;;2.40;99.90;;;;;;5054987;28;20080;-77
2023/04/26 02:08:42;;;;;;;4.45;1.80;;;2.40;99.90;;;;;;5055811;28;20525;-77
2023/04/26 02:11:07;;;;;;;3.00;1.50;;;2.50;99.90;;;;;;5055402;28;20041;-77
2023/04/26 02:13:33;;;;;;;3.75;1.90;;;2.70;99.90;;;;;;5054829;28;20045;-77
2023/04/26 02:15:59;;;;;;;6.32;1.70;;;2.40;99.90;;;;;;5053860;28;20381;-77
2023/04/26 02:18:24;;;;;;;4.82;2.00;;;2.20;99.90;;;;;;5055110;28;20045;-77
2023/04/26 02:20:50;;;;;;;3.78;1.48;;;2.20;99.90;;;;;;5054683;28;20049;-76
2023/04/26 02:23:16;;;;;;;3.25;1.58;;;2.20;99.90;;;;;;5054697;28;20051;-76
2023/04/26 02:25:45;;;;;;;4.50;1.67;;;2.80;99.90;;;;;;5054585;28;20556;-76
2023/04/26 02:28:11;;;;;;;4.88;1.92;;;2.10;99.90;;;;;;5054222;28;20064;-76
2023/04/26 02:30:36;;;;;;;6.65;2.72;;;2.70;99.90;;;;;;5036842;28;20057;-76
2023/04/26 02:33:02;;;;;;;3.42;1.40;;;2.70;99.90;;;;;;5055235;28;20045;-76
2023/04/26 02:35:28;;;;;;;3.35;1.58;;;2.20;99.90;;;;;;5054722;28;20077;-76
2023/04/26 02:37:54;;;;;;;7.20;1.92;;;3.10;99.90;;;;;;5054353;28;20047;-76
2023/04/26 02:40:20;;;;;;;4.45;1.67;;;2.40;99.90;;;;;;5054341;28;20370;-76
2023/04/26 02:42:47;;;;;;;4.90;1.75;;;2.40;99.90;;;;;;5054222;28;20091;-76
2023/04/26 02:45:13;;;;;;;6.20;1.73;;;2.60;99.90;;;;;;5054275;28;20052;-76
2023/04/26 02:47:39;;;;;;;6.78;2.47;;;2.60;99.90;;;;;;5053132;28;20045;-77
2023/04/26 02:50:09;;;;;;;3.38;1.85;;;2.60;99.90;;;;;;5053187;28;20489;-76
2023/04/26 02:52:35;;;;;;;5.97;1.95;;;2.60;99.90;;;;;;5054068;28;20041;-77
2023/04/26 02:55:03;;;;;;;4.30;1.80;;;2.70;99.90;;;;;;5054120;28;20440;-77
2023/04/26 02:57:30;;;;;;;5.25;1.90;;;2.70;99.90;;;;;;5053088;28;20049;-77
2023/04/26 02:59:56;;;;;;;5.75;1.77;;;3.10;99.90;;;;;;5052924;28;20052;-77
2023/04/26 03:02:22;;;;;;;7.68;3.28;;;2.70;99.90;;;;;;5052542;28;20045;-77
2023/04/26 03:04:48;;;;;;;5.65;2.03;;;2.60;99.90;;;;;;5053031;28;20095;-77
2023/04/26 03:07:14;;;;;;;5.10;1.60;;;2.60;99.90;;;;;;5052646;28;20088;-77
2023/04/26 03:09:39;;;;;;;3.95;1.60;;;3.00;99.90;;;;;;5053895;28;20053;-77
2023/04/26 03:12:08;;;;;;;5.30;1.85;;;2.40;99.90;;;;;;5053820;28;20076;-77
2023/04/26 03:14:35;;;;;;;6.03;1.90;;;2.40;99.90;;;;;;5053844;28;20187;-77
2023/04/26 03:17:01;;;;;;;4.63;1.52;;;2.30;99.90;;;;;;5052766;28;20049;-77
2023/04/26 03:19:27;;;;;;;3.90;1.42;;;2.40;99.90;;;;;;5036391;28;20367;-77
2023/04/26 03:21:54;;;;;;;3.30;1.73;;;2.00;99.90;;;;;;5053229;28;20547;-77
2023/04/26 03:24:20;;;;;;;3.58;1.50;;;1.90;99.90;;;;;;5055522;28;20191;-77
2023/04/26 03:26:46;;;;;;;4.38;1.75;;;2.20;99.90;;;;;;5056410;28;20115;-77
2023/04/26 03:29:12;;;;;;;2.72;1.38;;;1.70;99.90;;;;;;5056621;28;20063;-77
2023/04/26 03:31:37;;;;;;;4.97;1.73;;;2.00;99.90;;;;;;5054823;28;20079;-76
2023/04/26 03:34:04;;;;;;;6.68;2.33;;;2.10;99.90;;;;;;5054473;28;20087;-77
2023/04/26 03:36:30;;;;;;;4.80;1.60;;;2.00;99.90;;;;;;5052407;28;20051;-76
2023/04/26 03:38:56;;;;;;;4.05;1.67;;;1.60;99.90;;;;;;5052779;28;20064;-77
2023/04/26 03:41:22;;;;;;;3.85;1.70;;;1.60;99.90;;;;;;5052712;28;20110;-76
2023/04/26 03:43:48;;;;;;;6.72;1.55;;;1.50;99.90;;;;;;5053361;28;20077;-76
2023/04/26 03:46:14;;;;;;;3.30;1.83;;;1.50;99.90;;;;;;5053334;28;20045;-77
2023/04/26 03:48:39;;;;;;;3.85;1.80;;;1.40;99.90;;;;;;5053820;28;20037;-76
2023/04/26 03:51:05;;;;;;;6.63;2.13;;;2.00;99.90;;;;;;5053619;28;20041;-76
2023/04/26 03:53:31;;;;;;;4.03;1.95;;;1.30;99.90;;;;;;5053294;28;20041;-76
2023/04/26 03:55:57;;;;;;;4.13;1.77;;;1.20;99.90;;;;;;5035683;28;20056;-76
2023/04/26 03:58:26;;;;;;;3.45;1.70;;;1.10;99.90;;;;;;5053255;28;20049;-76
2023/04/26 04:00:55;;;;;;;4.68;1.92;;;1.10;99.90;;;;;;5052328;28;20118;-76
2023/04/26 04:03:21;;;;;;;3.53;2.03;;;1.10;99.90;;;;;;5053048;28;20351;-77
2023/04/26 04:05:46;;;;;;;4.88;2.10;;;1.20;99.90;;;;;;5053704;28;20059;-77
2023/04/26 04:08:12;;;;;;;4.10;1.92;;;1.20;99.90;;;;;;5053038;28;20068;-77
2023/04/26 04:10:38;;;;;;;5.00;2.10;;;1.40;99.90;;;;;;5051478;28;20068;-77
2023/04/26 04:13:03;;;;;;;3.88;2.10;;;1.30;99.90;;;;;;5054380;28;20041;-77
2023/04/26 04:15:29;;;;;;;4.97;1.88;;;1.30;99.90;;;;;;5057731;28;20475;-77
2023/04/26 04:17:55;;;;;;;9.65;2.38;;;1.40;99.90;;;;;;5056990;28;20041;-77
2023/04/26 04:20:21;;;;;;;6.90;2.17;;;1.30;99.90;;;;;;5056960;28;20045;-77
2023/04/26 04:22:46;;;;;;;3.42;1.75;;;1.60;99.90;;;;;;5057062;28;20088;-77
2023/04/26 04:25:13;;;;;;;5.57;2.10;;;1.40;99.90;;;;;;5056017;28;20095;-77
2023/04/26 04:27:41;;;;;;;4.25;2.47;;;1.40;99.90;;;;;;5056934;28;20076;-76
2023/04/26 04:30:08;;;;;;;3.33;2.20;;;1.50;99.90;;;;;;5056730;28;20553;-77
2023/04/26 04:32:35;;;;;;;4.90;2.33;;;1.40;99.90;;;;;;5057247;28;20045;-77
2023/04/26 04:35:01;;;;;;;3.65;2.38;;;2.00;99.90;;;;;;5056705;28;20450;-77
2023/04/26 04:37:27;;;;;;;4.93;2.42;;;2.00;99.90;;;;;;5056957;28;20088;-77
2023/04/26 04:39:54;;;;;;;4.10;2.05;;;2.00;99.90;;;;;;5056686;28;20048;-77
2023/04/26 04:42:20;;;;;;;11.20;2.67;;;1.70;99.90;;;;;;5055618;28;20135;-77
2023/04/26 04:44:46;;;;;;;3.88;2.38;;;1.60;99.90;;;;;;5056804;28;20363;-77
2023/04/26 04:47:12;;;;;;;6.60;2.22;;;1.60;99.90;;;;;;5055571;28;20048;-77
2023/04/26 04:49:38;;;;;;;5.78;2.30;;;2.40;99.90;;;;;;5055290;28;20045;-77
2023/04/26 04:52:05;;;;;;;4.50;2.15;;;1.60;99.90;;;;;;5055201;28;20099;-77
2023/04/26 04:54:31;;;;;;;4.75;2.00;;;1.70;99.90;;;;;;5055385;28;20056;-77
2023/04/26 04:56:57;;;;;;;5.60;2.30;;;1.70;99.90;;;;;;5056286;28;20045;-77
2023/04/26 04:59:23;;;;;;;5.35;1.90;;;1.80;99.90;;;;;;5056257;28;20107;-77
2023/04/26 05:01:49;;;;;;;2.83;1.75;;;1.80;99.90;;;;;;5055183;28;20088;-77
2023/04/26 05:04:16;;;;;;;4.10;1.92;;;1.80;99.90;;;;;;5056785;28;20056;-77
2023/04/26 05:06:41;;;;;;;3.65;2.13;;;1.80;99.90;;;;;;5056148;28;20045;-77
2023/04/26 05:09:08;;;;;;;5.78;2.15;;;1.80;99.90;;;;;;5056057;28;20052;-77
2023/04/26 05:11:34;;;;;;;4.97;2.20;;;2.30;99.90;;;;;;5056017;28;20117;-78
2023/04/26 05:13:59;;;;;;;4.63;2.00;;;1.90;99.90;;;;;;5038720;28;20445;-77
2023/04/26 05:16:25;;;;;;;5.38;2.00;;;1.90;99.90;;;;;;5055969;28;20123;-77
2023/04/26 05:18:51;;;;;;;5.07;2.30;;;2.50;99.90;;;;;;5055901;28;20047;-77
2023/04/26 05:21:17;;;;;;;5.93;2.13;;;1.90;99.90;;;;;;5055928;28;20119;-78
2023/04/26 05:23:42;;;;;;;3.83;2.22;;;2.00;99.90;;;;;;5054714;28;20045;-78
2023/04/26 05:26:13;;;;;;;7.60;2.40;;;2.00;99.90;;;;;;5054513;28;20052;-78
2023/04/26 05:28:40;;;;;;;11.20;3.50;;;2.40;99.90;;;;;;5054699;28;20067;-78
2023/04/26 05:31:06;;;;;;;5.20;2.10;;;2.10;99.90;;;;;;5055511;28;20547;-78
2023/04/26 05:33:32;;;;;;;5.72;1.95;;;2.30;99.90;;;;;;5055673;28;20045;-77
2023/04/26 05:35:58;;;;;;;3.67;2.05;;;2.80;99.90;;;;;;5054388;28;20086;-78
2023/04/26 05:38:24;;;;;;;4.18;1.90;;;3.00;99.90;;;;;;5054803;28;20061;-78
2023/04/26 05:40:50;;;;;;;5.57;2.03;;;2.90;99.90;;;;;;5055439;28;20048;-78
2023/04/26 05:43:16;;;;;;;4.90;2.10;;;3.30;99.90;;;;;;5054512;28;20496;-78
2023/04/26 05:45:52;;;;;;;5.68;1.90;;;3.30;99.90;;;;;;5055383;28;20072;-78
2023/04/26 05:48:19;;;;;;;5.35;1.90;;;3.30;99.90;;;;;;5055205;28;20053;-77
2023/04/26 05:50:45;;;;;;;3.63;1.70;;;3.60;99.90;;;;;;5054359;28;20496;-77
2023/04/26 05:53:10;;;;;;;4.93;1.83;;;3.50;99.90;;;;;;5055104;28;20049;-78
2023/04/26 05:55:36;;;;;;;3.03;1.75;;;3.50;99.90;;;;;;5055432;28;20049;-79
2023/04/26 05:58:02;;;;;;;4.25;1.73;;;3.60;99.90;;;;;;5055905;28;20041;-77
2023/04/26 06:00:27;;;;;;;4.38;2.08;;;3.60;99.90;;;;;;5055161;28;20481;-78
2023/04/26 06:02:53;;;;;;;5.03;1.70;;;4.00;99.90;;;;;;5055076;28;20095;-78
2023/04/26 06:05:19;;;;;;;3.83;1.98;;;3.60;99.90;;;;;;5055069;28;20398;-78
2023/04/26 06:07:45;;;;;;;4.07;1.90;;;3.60;99.90;;;;;;5037404;28;20052;-78
2023/04/26 06:10:12;;;;;;;3.33;1.90;;;3.90;99.90;;;;;;5037344;28;20428;-78
2023/04/26 06:12:38;;;;;;;5.13;1.80;;;3.70;99.90;;;;;;5053620;28;20049;-78
2023/04/26 06:15:04;;;;;;;5.45;1.92;;;3.70;99.90;;;;;;5054797;28;20448;-78
2023/04/26 06:17:30;;;;;;;5.15;1.73;;;3.60;99.90;;;;;;5054839;28;20100;-78
2023/04/26 06:19:55;;;;;;;3.30;1.70;;;3.70;99.90;;;;;;5053774;28;20474;-78
2023/04/26 06:22:21;;;;;;;4.13;1.90;;;3.70;99.90;;;;;;5054931;28;20041;-77
2023/04/26 06:24:47;;;;;;;4.60;2.00;;;4.00;99.90;;;;;;5053501;28;20091;-78
2023/04/26 06:27:12;;;;;;;4.68;1.90;;;3.60;99.90;;;;;;5054634;28;20064;-77
2023/04/26 06:29:38;;;;;;;5.90;1.85;;;3.60;99.90;;;;;;5054384;28;20131;-77
2023/04/26 06:32:04;;;;;;;5.32;2.13;;;3.90;99.90;;;;;;5054891;28;20036;-77
2023/04/26 06:34:30;;;;;;;5.93;2.15;;;4.00;99.90;;;;;;5054274;28;20128;-74
2023/04/26 06:36:56;;;;;;;4.15;1.88;;;4.20;99.90;;;;;;5054364;28;20228;-75
2023/04/26 06:39:21;;;;;;;3.72;1.90;;;4.30;99.90;;;;;;5053363;28;20045;-77
2023/04/26 06:41:47;;;;;;;5.47;2.20;;;4.50;99.90;;;;;;5054285;28;20120;-76
2023/04/26 06:44:13;;;;;;;7.65;2.10;;;4.70;99.90;;;;;;5053378;28;20045;-76
2023/04/26 06:46:38;;;;;;;3.28;1.90;;;4.70;99.90;;;;;;5054237;28;20044;-75
2023/04/26 06:49:04;;;;;;;6.03;2.65;;;4.80;99.90;;;;;;5054411;28;20092;-76
2023/04/26 06:51:30;;;;;;;3.25;1.90;;;5.20;99.90;;;;;;5053101;28;20040;-76
2023/04/26 06:53:57;;;;;;;3.58;2.00;;;5.20;99.90;;;;;;5054049;28;20114;-75
2023/04/26 06:56:23;;;;;;;4.45;2.47;;;5.10;99.90;;;;;;5036547;28;20136;-75
2023/04/26 06:59:00;;;;;;;4.65;2.03;;;5.30;99.90;;;;;;5054470;28;20136;-75
2023/04/26 07:01:28;;;;;;;5.18;1.88;;;5.40;99.90;;;;;;5052833;28;20114;-77
2023/04/26 07:03:55;;;;;;;2.95;1.80;;;5.50;99.90;;;;;;5054770;28;20045;-77
2023/04/26 07:06:22;;;;;;;3.50;1.80;;;5.60;99.90;;;;;;5053936;28;20056;-76
2023/04/26 07:08:48;;;;;;;5.63;2.05;;;5.80;99.90;;;;;;5053823;28;20482;-78
2023/04/26 07:11:13;;;;;;;5.30;1.55;;;5.90;99.90;;;;;;5053182;28;20051;-81
2023/04/26 07:13:39;;;;;;;4.30;2.03;;;6.00;99.90;;;;;;5053697;28;20412;-89
2023/04/26 07:16:05;;;;;;;4.03;1.70;;;6.10;99.90;;;;;;5053642;28;20045;-85
2023/04/26 07:18:31;;;;;;;3.10;1.60;;;6.10;99.90;;;;;;5053660;28;20091;-78
2023/04/26 07:20:56;;;;;;;4.03;1.70;;;6.20;99.90;;;;;;5052425;28;20049;-76
2023/04/26 07:23:22;;;;;;;3.67;2.15;;;6.20;99.90;;;;;;5053884;28;20048;-81
2023/04/26 07:25:48;;;;;;;5.53;1.92;;;6.20;99.90;;;;;;5052284;28;20045;-82
2023/04/26 07:28:14;;;;;;;5.60;1.90;;;6.30;99.90;;;;;;5053299;28;20056;-82
2023/04/26 07:30:40;;;;;;;4.35;1.50;;;6.30;99.90;;;;;;5036523;28;20056;-78
2023/04/26 07:33:05;;;;;;;3.58;1.58;;;6.40;99.90;;;;;;5053258;28;20047;-85
2023/04/26 07:35:34;;;;;;;3.72;1.60;;;6.50;99.90;;;;;;5053312;28;20388;-85
2023/04/26 07:37:59;;;;;;;4.03;1.58;;;6.60;99.90;;;;;;5053687;28;20387;-79
2023/04/26 07:40:27;;;;;;;4.00;1.42;;;6.70;99.90;;;;;;5052361;28;20048;-83
2023/04/26 07:42:53;;;;;;;3.30;1.50;;;6.70;99.90;;;;;;5053389;28;20037;-82
2023/04/26 07:45:19;;;;;;;3.05;1.65;;;6.80;99.90;;;;;;5036526;28;20155;-82
2023/04/26 07:47:44;;;;;;;7.93;2.25;;;6.90;99.90;;;;;;5055519;28;20059;-81
2023/04/26 07:50:10;;;;;;;3.03;1.80;;;7.10;99.90;;;;;;5059749;28;20044;-80
2023/04/26 07:52:36;;;;;;;3.22;1.45;;;7.20;99.90;;;;;;5059923;28;20429;-83
2023/04/26 07:55:02;;;;;;;3.22;1.48;;;7.10;99.90;;;;;;5059811;28;20481;-79
2023/04/26 07:57:28;;;;;;;4.40;1.90;;;7.20;99.90;;;;;;5061343;28;20048;-74
2023/04/26 07:59:54;;;;;;;4.00;1.45;;;7.10;99.90;;;;;;5061719;28;20047;-77
2023/04/26 08:02:19;;;;;;;4.28;1.30;;;7.10;99.90;;;;;;5060391;28;20142;-79
2023/04/26 08:04:51;;;;;;;2.22;1.20;;;7.10;99.90;;;;;;5059610;28;20048;-76
2023/04/26 08:07:20;;;;;;;5.25;1.38;;;7.10;99.90;;;;;;5059492;28;20057;-78
2023/04/26 08:09:46;;;;;;;4.97;2.30;;;7.10;99.90;;;;;;5059551;28;20056;-76
2023/04/26 08:12:12;;;;;;;3.45;1.35;;;7.30;99.90;;;;;;5059613;28;20037;-79
2023/04/26 08:14:38;;;;;;;4.40;1.70;;;7.50;99.90;;;;;;5059630;28;20048;-75
2023/04/26 08:17:05;;;;;;;3.45;1.50;;;7.60;99.90;;;;;;5059596;28;20052;-78
2023/04/26 08:19:32;;;;;;;3.65;1.20;;;7.80;99.90;;;;;;5058853;28;20135;-74
2023/04/26 08:21:58;;;;;;;4.22;1.63;;;7.70;99.90;;;;;;5059617;28;20045;-73
2023/04/26 08:24:25;;;;;;;3.00;1.60;;;7.70;99.90;;;;;;5059761;28;20119;-74
2023/04/26 08:26:51;;;;;;;3.22;1.40;;;7.80;99.90;;;;;;5059503;28;20492;-73
2023/04/26 08:29:17;;;;;;;3.35;1.30;;;7.80;99.90;;;;;;5060146;28;20107;-73
2023/04/26 08:31:43;;;;;;;3.03;1.23;;;7.80;99.90;;;;;;5041843;28;20048;-73
2023/04/26 08:34:10;;;;;;;4.45;1.50;;;7.80;99.90;;;;;;5059641;28;20044;-73
2023/04/26 08:36:40;;;;;;;3.67;1.48;;;7.70;99.90;;;;;;5058686;28;20493;-73
2023/04/26 08:39:07;;;;;;;3.25;1.30;;;7.80;99.90;;;;;;5059557;28;20066;-75
2023/04/26 08:41:42;;;;;;;3.60;1.38;;;7.80;99.90;;;;;;5059635;28;20460;-75
2023/04/26 08:44:08;;;;;;;4.97;1.40;;;8.00;99.90;;;;;;5059626;28;20048;-75
2023/04/26 08:46:43;;;;;;;4.32;1.88;;;8.30;99.90;;;;;;5059536;28;20060;-75
2023/04/26 08:49:24;;;;;;;2.60;1.38;;;8.40;99.90;;;;;;5059580;28;20052;-75
2023/04/26 08:51:51;;;;;;;5.68;1.42;;;8.40;99.90;;;;;;5059601;28;20044;-74
2023/04/26 08:54:19;;;;;;;10.70;2.10;;;8.20;99.90;;;;;;5059911;28;20128;-73
2023/04/26 08:56:46;;;;;;;3.38;1.42;;;8.10;99.90;;;;;;5059405;28;20055;-73
2023/04/26 08:59:12;;;;;;;2.50;1.48;;;8.00;99.90;;;;;;5056487;28;20061;-74
2023/04/26 09:01:43;;;;;;;3.70;1.25;;;7.90;99.90;;;;;;5056231;28;20041;-73
2023/04/26 09:04:09;;;;;;;2.08;1.20;;;7.90;99.90;;;;;;5055525;28;20120;-74
2023/04/26 09:06:36;;;;;;;3.45;1.30;;;8.00;99.90;;;;;;5056510;28;20052;-75
2023/04/26 09:09:03;;;;;;;6.07;1.40;;;8.10;99.90;;;;;;5055943;28;20122;-74
2023/04/26 09:11:29;;;;;;;2.97;1.40;;;8.20;99.90;;;;;;5055068;28;20182;-74
2023/04/26 09:13:55;;;;;;;4.40;1.40;;;8.40;99.90;;;;;;5055545;28;20087;-82
2023/04/26 09:16:36;;;;;;;3.35;1.50;;;8.50;99.90;;;;;;5056307;28;20056;-75
2023/04/26 09:19:02;;;;;;;5.20;1.50;;;8.50;99.90;;;;;;5056399;28;20066;-74
2023/04/26 09:21:28;;;;;;;3.17;1.40;;;8.60;99.90;;;;;;5056153;28;20628;-74
2023/04/26 09:24:03;;;;;;;5.00;1.52;;;8.60;99.90;;;;;;5055857;28;20053;-74
2023/04/26 09:26:29;;;;;;;2.90;1.30;;;8.80;99.90;;;;;;5055724;28;20048;-80
2023/04/26 09:29:16;;;;;;;3.33;1.30;;;8.90;99.90;;;;;;5055560;28;20064;-74
2023/04/26 09:31:44;;;;;;;4.07;1.48;;;9.00;99.90;;;;;;5056369;28;20142;-74
2023/04/26 09:34:11;;;;;;;3.22;1.35;;;9.10;99.90;;;;;;5055207;28;20480;-74
2023/04/26 09:36:46;;;;;;;4.07;1.52;;;9.10;99.90;;;;;;5055456;28;20049;-73
2023/04/26 09:39:12;;;;;;;3.15;2.03;;;9.10;99.90;;;;;;5055960;28;20056;-86
2023/04/26 09:41:44;;;;;;;3.38;1.50;;;9.10;99.90;;;;;;5055409;28;20040;-79
2023/04/26 09:44:23;;;;;;;2.67;1.25;;;9.10;99.90;;;;;;5055398;28;20502;-80
2023/04/26 09:47:05;;;;;;;3.30;1.40;;;9.30;99.90;;;;;;5055393;28;20044;-80
2023/04/26 09:49:43;;;;;;;2.90;1.30;;;9.10;99.90;;;;;;5055306;28;20147;-78
2023/04/26 09:52:09;;;;;;;3.13;1.75;;;8.90;99.90;;;;;;5055829;28;20124;-82
2023/04/26 09:54:46;;;;;;;2.17;1.38;;;8.60;99.90;;;;;;5055147;28;20132;-82
2023/04/26 09:57:15;;;;;;;3.88;1.55;;;8.50;99.90;;;;;;5055208;28;20485;-79
2023/04/26 09:59:48;;;;;;;2.90;1.52;;;8.70;99.90;;;;;;5054914;28;20528;-82
2023/04/26 10:02:20;;;;;;;3.33;1.40;;;9.20;99.90;;;;;;5055407;28;20045;-73
2023/04/26 10:04:48;;;;;;;3.08;1.73;;;9.50;99.90;;;;;;5054850;28;20122;-72
2023/04/26 10:07:16;;;;;;;3.95;1.75;;;9.70;99.90;;;;;;5053626;28;20134;-72
2023/04/26 10:09:42;;;;;;;4.53;1.25;;;9.90;99.90;;;;;;5054752;28;20095;-72
2023/04/26 10:12:10;;;;;;;3.45;1.63;;;9.90;99.90;;;;;;5054375;28;20421;-72
2023/04/26 10:14:36;;;;;;;3.00;1.48;;;9.80;99.90;;;;;;5053689;28;20052;-73
2023/04/26 10:17:05;;;;;;;3.30;1.55;;;9.70;99.90;;;;;;5054817;28;20049;-73
2023/04/26 10:19:35;;;;;;;2.40;1.40;;;9.70;99.90;;;;;;5053769;28;20067;-73
2023/04/26 10:22:08;;;;;;;4.38;1.65;;;9.60;99.90;;;;;;5054733;28;20087;-73
2023/04/26 10:24:35;;;;;;;3.90;1.27;;;9.50;99.90;;;;;;5053437;28;20067;-73
2023/04/26 10:27:03;;;;;;;2.30;1.20;;;9.30;99.90;;;;;;5054625;28;20390;-73
2023/04/26 10:30:06;;;;;;;2.88;1.20;;;9.30;99.90;;;;;;5055030;28;20460;-75
2023/04/26 10:32:32;;;;;;;2.42;1.70;;;9.20;99.90;;;;;;5054086;28;20099;-82
2023/04/26 10:35:14;;;;;;;2.42;1.40;;;9.10;99.90;;;;;;5053033;28;20045;-75
2023/04/26 10:37:58;;;;;;;3.90;1.13;;;9.10;99.90;;;;;;5054243;28;20060;-75
2023/04/26 10:40:35;;;;;;;2.42;1.20;;;9.00;99.90;;;;;;5054275;28;20114;-75
2023/04/26 10:43:09;;;;;;;;;;;9.00;99.90;;;;;;5054567;28;20061;-75
2023/04/26 10:45:36;;;;;;;3.65;1.50;;;9.00;99.90;;;;;;5053862;28;20365;-75
2023/04/26 10:48:17;;;;;;;4.80;1.65;;;9.00;99.90;;;;;;5054174;28;20044;-75
2023/04/26 10:51:00;;;;;;;3.90;1.40;;;9.00;99.90;;;;;;5054174;28;20374;-75
2023/04/26 10:53:29;;;;;;;3.42;1.50;;;9.00;99.90;;;;;;5036952;28;20056;-75
2023/04/26 10:55:55;;;;;;;3.03;1.60;;;9.00;99.90;;;;;;5053954;28;20048;-75
2023/04/26 10:58:47;;;;;;;3.30;1.77;;;9.10;99.90;;;;;;5052958;28;20037;-74
2023/04/26 11:01:17;;;;;;;5.45;1.70;;;9.10;99.90;;;;;;5047464;28;20075;-73
2023/04/26 11:04:03;;;;;;;3.45;1.48;;;9.30;99.90;;;;;;5054434;28;20044;-82
2023/04/26 11:06:51;;;;;;;3.35;1.50;;;9.40;99.90;;;;;;5054392;28;20398;-83
2023/04/26 11:09:32;;;;;;;4.25;1.88;;;9.40;99.90;;;;;;5054311;28;20139;-85
2023/04/26 11:11:58;;;;;;;3.83;1.80;;;9.20;99.90;;;;;;5053805;28;20041;-81
2023/04/26 11:14:25;;;;;;;4.18;1.92;;;9.10;99.90;;;;;;5054187;28;20060;-77
2023/04/26 11:16:50;;;;;;;5.30;2.33;;;9.00;99.90;;;;;;5053546;28;20127;-73
2023/04/26 11:19:16;;;;;;;3.75;1.80;;;8.90;99.90;;;;;;5054617;28;20152;-74
2023/04/26 11:21:42;;;;;;;4.43;1.55;;;8.80;99.90;;;;;;5052105;28;20041;-83
2023/04/26 11:24:07;;;;;;;6.00;1.55;;;8.80;99.90;;;;;;5052916;28;20052;-88
2023/04/26 11:26:34;;;;;;;2.72;1.70;;;8.80;99.90;;;;;;5053471;28;20051;-82
2023/04/26 11:29:00;;;;;;;2.65;1.70;;;8.80;99.90;;;;;;5053774;28;20393;-79
2023/04/26 11:31:29;;;;;;;2.50;1.33;;;8.80;99.90;;;;;;5053393;28;20059;-80
2023/04/26 11:34:02;;;;;;;3.20;1.85;;;8.70;99.90;;;;;;5053469;28;20438;-82
2023/04/26 11:36:28;;;;;;;5.90;1.50;;;8.80;99.90;;;;;;5053281;28;20057;-80
2023/04/26 11:38:54;;;;;;;3.50;1.60;;;8.80;99.90;;;;;;5053404;28;20045;-83
2023/04/26 11:41:22;;;;;;;2.65;1.50;;;8.80;99.90;;;;;;5053361;28;20132;-82
2023/04/26 11:43:48;;;;;;;2.60;1.40;;;8.80;99.90;;;;;;5052177;28;20110;-82
2023/04/26 11:46:15;;;;;;;3.05;1.38;;;8.80;99.90;;;;;;5020113;28;20399;-79
2023/04/26 11:48:41;;;;;;;4.13;1.45;;;8.70;99.90;;;;;;5053346;28;20179;-73
2023/04/26 11:51:07;;;;;;;4.00;1.50;;;8.80;99.90;;;;;;5053208;28;20106;-73
2023/04/26 11:53:43;;;;;;;3.58;1.58;;;8.90;99.90;;;;;;5053256;28;20546;-74
2023/04/26 11:56:19;;;;;;;2.47;1.40;;;8.90;99.90;;;;;;5053206;28;20082;-82
2023/04/26 11:58:49;;;;;;;2.55;1.58;;;8.90;99.90;;;;;;5053733;28;20475;-86
2023/04/26 12:01:29;;;;;;;3.85;1.65;;;9.00;99.90;;;;;;5053110;28;20045;-83
2023/04/26 12:03:58;;;;;;;2.45;1.25;;;9.30;99.90;;;;;;5053015;28;20048;-87
2023/04/26 12:06:40;;;;;;;4.50;1.40;;;9.40;99.90;;;;;;5051908;28;20048;-84
2023/04/26 12:09:08;;;;;;;4.07;1.55;;;9.70;99.90;;;;;;5053747;28;20132;-87
2023/04/26 12:11:33;;;;;;;3.22;1.67;;;10.00;99.90;;;;;;5053638;28;20049;-87
2023/04/26 12:14:00;;;;;;;3.97;1.33;;;10.40;99.90;;;;;;5053033;28;20045;-83
2023/04/26 12:16:26;;;;;;;4.07;1.27;;;10.50;99.90;;;;;;5053324;28;20151;-85
2023/04/26 12:18:52;;;;;;;4.53;1.50;;;10.60;99.90;;;;;;5053038;28;20103;-84
2023/04/26 12:21:19;;;;;;;3.03;1.40;;;10.60;99.90;;;;;;5053071;28;20057;-88
2023/04/26 12:23:46;;;;;;;3.72;1.40;;;10.70;99.90;;;;;;5054804;28;20045;-87
2023/04/26 12:26:12;;;;;;;2.95;1.75;;;10.90;99.90;;;;;;5055686;28;20049;-85
2023/04/26 12:28:38;;;;;;;5.00;1.42;;;11.40;99.90;;;;;;5054301;28;20057;-80
2023/04/26 12:31:05;;;;;;;3.55;1.33;;;12.10;99.90;;;;;;5052233;28;20096;-86
2023/04/26 12:33:31;;;;;;;3.22;1.30;;;12.60;99.90;;;;;;5053512;28;20060;-80
2023/04/26 12:36:05;;;;;;;2.72;1.40;;;12.50;99.90;;;;;;5057092;28;20044;-83
2023/04/26 12:38:31;;;;;;;3.80;1.50;;;12.30;99.90;;;;;;5056786;28;20063;-74
2023/04/26 12:40:57;;;;;;;2.88;1.20;;;12.10;99.90;;;;;;5055473;28;20060;-75
2023/04/26 12:43:24;;;;;;;3.00;1.35;;;12.00;99.90;;;;;;5056918;28;20045;-74
2023/04/26 12:45:50;;;;;;;3.45;1.40;;;11.90;99.90;;;;;;5056930;28;20049;-74
2023/04/26 12:48:16;;;;;;;3.50;1.70;;;11.90;99.90;;;;;;5056300;28;20049;-75
2023/04/26 12:50:42;;;;;;;3.28;1.40;;;12.20;99.90;;;;;;5055275;28;20052;-75
2023/04/26 12:53:09;;;;;;;2.72;1.23;;;13.00;99.90;;;;;;5038346;28;20048;-74
2023/04/26 12:55:35;;;;;;;2.92;1.45;;;13.70;99.90;;;;;;5056229;28;20049;-77
2023/04/26 12:58:01;;;;;;;2.65;1.30;;;14.00;99.90;;;;;;5055435;28;20037;-74